Time;durP1;ratioP1;P1;durP2;ratioP2;P2;SDS_P1;SDS_P2;PMS_P1;PMS_P2;Temp;Humidity;BMP_temperature;BMP_pressure;BME280_temperature;BME280_humidity;BME280_pressure;Samples;Min_cycle;Max_cycle;Signal;HPM_P1;HPM_P2
2021/04/11 00:00:18;;;;;;;6.00;4.97;;;10.70;99.90;;;;;;4995070;28;20744;-73
2021/04/11 00:02:43;;;;;;;6.40;5.00;;;10.70;99.90;;;;;;4994783;28;20179;-73
2021/04/11 00:05:10;;;;;;;6.00;5.40;;;10.70;99.90;;;;;;4993506;28;20414;-72
2021/04/11 00:07:36;;;;;;;5.80;4.73;;;10.70;99.90;;;;;;4994720;28;20608;-73
2021/04/11 00:10:06;;;;;;;10.60;5.33;;;10.70;99.90;;;;;;4995151;28;20498;-73
2021/04/11 00:12:31;;;;;;;6.00;5.10;;;10.70;99.90;;;;;;4993446;28;20514;-72
2021/04/11 00:14:57;;;;;;;6.73;4.70;;;10.70;99.90;;;;;;4994859;28;20526;-72
2021/04/11 00:17:22;;;;;;;6.50;5.13;;;10.70;99.90;;;;;;4994777;28;20641;-72
2021/04/11 00:19:48;;;;;;;5.63;4.47;;;10.70;99.90;;;;;;4994852;28;20592;-72
2021/04/11 00:22:13;;;;;;;5.30;4.80;;;10.70;99.90;;;;;;4994959;28;20258;-72
2021/04/11 00:24:39;;;;;;;5.63;5.03;;;10.70;99.90;;;;;;4994773;28;20199;-72
2021/04/11 00:27:05;;;;;;;5.13;4.63;;;10.70;99.90;;;;;;4994412;28;20216;-72
2021/04/11 00:29:30;;;;;;;7.27;5.77;;;10.70;99.90;;;;;;4995383;28;20265;-73
2021/04/11 00:31:55;;;;;;;5.60;5.10;;;10.70;99.90;;;;;;4994701;28;20429;-73
2021/04/11 00:34:21;;;;;;;6.20;4.80;;;10.80;99.90;;;;;;4994859;28;20169;-73
2021/04/11 00:36:49;;;;;;;8.50;5.20;;;10.70;99.90;;;;;;4993874;28;20219;-73
2021/04/11 00:39:14;;;;;;;5.83;5.30;;;10.80;99.90;;;;;;4993966;28;20403;-73
2021/04/11 00:41:47;;;;;;;8.37;5.30;;;10.80;99.90;;;;;;4994105;28;20492;-73
2021/04/11 00:44:13;;;;;;;5.67;5.17;;;10.80;99.90;;;;;;4994192;28;20629;-72
2021/04/11 00:46:48;;;;;;;4.77;4.37;;;10.80;99.90;;;;;;4994268;28;20462;-73
2021/04/11 00:49:21;;;;;;;5.83;5.30;;;10.80;99.90;;;;;;4994378;28;20402;-73
2021/04/11 00:51:47;;;;;;;5.27;4.77;;;10.80;99.90;;;;;;4992900;28;20558;-73
2021/04/11 00:54:13;;;;;;;5.50;5.00;;;10.80;99.90;;;;;;4994171;28;20512;-72
2021/04/11 00:56:39;;;;;;;5.67;5.00;;;10.80;99.90;;;;;;4992630;28;20219;-72
2021/04/11 00:59:07;;;;;;;5.73;5.13;;;10.80;99.90;;;;;;4993991;28;20419;-72
2021/04/11 01:01:33;;;;;;;5.60;5.10;;;10.70;99.90;;;;;;4994161;28;20625;-73
2021/04/11 01:03:59;;;;;;;6.00;5.40;;;10.80;99.90;;;;;;4993687;28;20439;-71
2021/04/11 01:06:31;;;;;;;5.70;5.20;;;10.70;99.90;;;;;;4994045;28;20551;-72
2021/04/11 01:08:57;;;;;;;6.10;5.00;;;10.80;99.90;;;;;;4993824;28;20434;-72
2021/04/11 01:11:30;;;;;;;6.07;5.33;;;10.70;99.90;;;;;;4992661;28;20407;-72
2021/04/11 01:13:58;;;;;;;7.10;5.77;;;10.70;99.90;;;;;;4996118;28;20494;-72
2021/04/11 01:16:25;;;;;;;5.53;5.03;;;10.70;99.90;;;;;;4998185;28;20465;-72
2021/04/11 01:18:51;;;;;;;6.10;5.30;;;10.80;99.90;;;;;;4997962;28;20434;-73
2021/04/11 01:21:25;;;;;;;8.77;5.70;;;10.80;99.90;;;;;;4997682;28;20454;-73
2021/04/11 01:23:55;;;;;;;6.50;5.90;;;10.80;99.90;;;;;;4997440;28;20430;-73
2021/04/11 01:26:22;;;;;;;6.03;5.53;;;10.70;99.90;;;;;;4997520;28;20458;-73
2021/04/11 01:28:48;;;;;;;6.20;5.23;;;10.70;99.90;;;;;;4997398;28;20414;-73
2021/04/11 01:31:15;;;;;;;4.83;4.43;;;10.70;99.90;;;;;;4997504;28;20750;-72
2021/04/11 01:33:49;;;;;;;5.27;4.77;;;10.70;99.90;;;;;;5012360;28;20985;-73
2021/04/11 01:36:24;;;;;;;7.17;4.97;;;10.70;99.90;;;;;;4997187;28;20433;-72
2021/04/11 01:38:50;;;;;;;6.63;5.23;;;10.70;99.90;;;;;;4996924;28;20990;-72
2021/04/11 01:41:21;;;;;;;6.70;5.47;;;10.70;99.90;;;;;;4996483;28;20419;-73
2021/04/11 01:43:50;;;;;;;5.80;5.40;;;10.70;99.90;;;;;;4997397;28;20408;-73
2021/04/11 01:46:16;;;;;;;5.60;5.10;;;10.70;99.90;;;;;;4997493;28;20524;-72
2021/04/11 01:48:43;;;;;;;5.57;4.90;;;10.70;99.90;;;;;;4997433;28;20408;-72
2021/04/11 01:51:11;;;;;;;5.37;4.87;;;10.70;99.90;;;;;;5012397;28;20180;-72
2021/04/11 01:53:37;;;;;;;7.70;5.67;;;10.70;99.90;;;;;;4997213;28;20956;-73
2021/04/11 01:56:05;;;;;;;6.50;5.60;;;10.70;99.90;;;;;;4996994;28;20422;-73
2021/04/11 01:58:34;;;;;;;5.77;5.00;;;10.70;99.90;;;;;;4996056;28;20419;-73
2021/04/11 02:01:29;;;;;;;6.10;5.50;;;10.80;99.90;;;;;;4996894;28;20827;-73
2021/04/11 02:03:57;;;;;;;6.10;5.50;;;10.80;99.90;;;;;;4996761;28;20402;-71
2021/04/11 02:06:24;;;;;;;6.50;5.20;;;10.80;99.90;;;;;;4995216;28;20458;-74
2021/04/11 02:08:54;;;;;;;6.30;5.70;;;10.80;99.90;;;;;;4997146;28;20412;-73
2021/04/11 02:11:20;;;;;;;5.40;4.90;;;10.80;99.90;;;;;;4996940;28;20403;-72
2021/04/11 02:13:46;;;;;;;5.60;5.10;;;10.80;99.90;;;;;;4996572;28;20413;-73
2021/04/11 02:16:14;;;;;;;5.70;5.07;;;10.80;99.90;;;;;;4996807;28;20486;-72
2021/04/11 02:18:40;;;;;;;8.77;6.57;;;10.80;99.90;;;;;;4996656;28;20633;-74
2021/04/11 02:21:17;;;;;;;7.60;4.77;;;10.80;99.90;;;;;;4995723;28;20429;-73
2021/04/11 02:23:47;;;;;;;6.57;5.43;;;10.80;99.90;;;;;;4997258;28;20421;-72
2021/04/11 02:26:13;;;;;;;6.63;4.90;;;10.80;99.90;;;;;;4996596;28;21000;-72
2021/04/11 02:28:40;;;;;;;5.90;5.40;;;10.80;99.90;;;;;;4996416;28;20423;-72
2021/04/11 02:31:18;;;;;;;5.83;5.33;;;10.80;99.90;;;;;;4996394;28;20406;-73
2021/04/11 02:34:03;;;;;;;5.87;5.27;;;10.80;99.90;;;;;;4996274;28;20989;-72
2021/04/11 02:36:57;;;;;;;5.70;5.20;;;10.90;99.90;;;;;;4996275;28;20430;-73
2021/04/11 02:39:35;;;;;;;6.20;5.70;;;10.80;99.90;;;;;;4998322;28;20487;-73
2021/04/11 02:42:07;;;;;;;6.03;5.53;;;10.80;99.90;;;;;;4996120;28;20895;-73
2021/04/11 02:44:40;;;;;;;5.83;5.27;;;10.90;99.90;;;;;;4996399;28;20403;-73
2021/04/11 02:47:06;;;;;;;6.87;6.27;;;10.90;99.90;;;;;;4995995;28;21082;-73
2021/04/11 02:49:32;;;;;;;6.30;5.80;;;10.90;99.90;;;;;;4996083;28;20415;-73
2021/04/11 02:52:02;;;;;;;5.40;5.00;;;10.90;99.90;;;;;;4995936;28;21012;-73
2021/04/11 02:54:29;;;;;;;7.00;6.30;;;10.90;99.90;;;;;;4996598;28;20684;-73
2021/04/11 02:56:57;;;;;;;6.83;6.30;;;10.90;99.90;;;;;;4996428;28;20515;-73
2021/04/11 02:59:22;;;;;;;6.50;5.83;;;10.90;99.90;;;;;;4996302;28;20415;-73
2021/04/11 03:01:49;;;;;;;6.50;5.93;;;10.90;99.90;;;;;;4995801;28;20491;-74
2021/04/11 03:04:18;;;;;;;9.43;6.00;;;10.90;99.90;;;;;;4995556;28;20611;-73
2021/04/11 03:06:49;;;;;;;6.00;5.50;;;10.90;99.90;;;;;;4995975;28;20465;-73
2021/04/11 03:09:21;;;;;;;6.70;6.00;;;10.90;99.90;;;;;;4996107;28;20538;-73
2021/04/11 03:11:53;;;;;;;6.97;6.40;;;10.90;99.90;;;;;;4995614;28;20415;-72
2021/04/11 03:14:21;;;;;;;6.93;6.33;;;10.90;99.90;;;;;;4995440;28;20411;-72
2021/04/11 03:16:48;;;;;;;7.27;6.67;;;10.90;99.90;;;;;;4994047;28;20481;-72
2021/04/11 03:19:26;;;;;;;7.10;6.50;;;10.90;99.90;;;;;;4995644;28;20462;-72
2021/04/11 03:21:52;;;;;;;7.63;7.00;;;10.80;99.90;;;;;;4995480;28;20417;-73
2021/04/11 03:24:17;;;;;;;7.50;6.90;;;10.70;99.90;;;;;;4995280;28;20807;-73
2021/04/11 03:26:45;;;;;;;7.90;7.20;;;10.70;99.90;;;;;;4995236;28;20218;-73
2021/04/11 03:29:30;;;;;;;7.33;6.73;;;10.60;99.90;;;;;;4994984;28;20200;-73
2021/04/11 03:32:09;;;;;;;6.90;6.30;;;10.60;99.90;;;;;;4995273;28;20463;-73
2021/04/11 03:34:37;;;;;;;6.67;5.97;;;10.40;99.90;;;;;;4994867;28;20420;-73
2021/04/11 03:37:05;;;;;;;7.40;6.70;;;10.00;99.90;;;;;;4995041;28;20956;-73
2021/04/11 03:39:33;;;;;;;7.77;7.03;;;9.80;99.90;;;;;;4995008;28;20526;-73
2021/04/11 03:42:02;;;;;;;7.87;7.07;;;9.50;99.90;;;;;;4994855;28;20413;-73
2021/04/11 03:44:28;;;;;;;8.17;7.37;;;9.60;99.90;;;;;;4995278;28;20408;-73
2021/04/11 03:47:15;;;;;;;7.43;6.73;;;9.60;99.90;;;;;;4995189;28;20537;-72
2021/04/11 03:49:59;;;;;;;7.50;6.80;;;9.60;99.90;;;;;;4995317;28;20302;-72
2021/04/11 03:52:29;;;;;;;7.73;6.93;;;9.70;99.90;;;;;;4993929;28;20457;-73
2021/04/11 03:55:18;;;;;;;7.50;6.80;;;9.70;99.90;;;;;;5016470;28;20481;-73
2021/04/11 03:57:52;;;;;;;8.17;7.30;;;9.80;99.90;;;;;;5032982;28;20525;-72
2021/04/11 04:00:28;;;;;;;7.50;6.70;;;9.80;99.90;;;;;;5032649;28;20442;-71
2021/04/11 04:02:58;;;;;;;9.73;7.67;;;9.80;99.90;;;;;;5016743;28;20945;-72
2021/04/11 04:05:27;;;;;;;9.27;8.27;;;9.80;99.90;;;;;;5015604;28;20462;-72
2021/04/11 04:07:55;;;;;;;9.30;7.90;;;9.70;99.90;;;;;;5032500;28;20473;-73
2021/04/11 04:10:25;;;;;;;8.60;7.80;;;9.70;99.90;;;;;;5032574;28;20538;-73
2021/04/11 04:13:16;;;;;;;10.90;9.33;;;9.60;99.90;;;;;;5031637;28;20970;-72
2021/04/11 04:15:49;;;;;;;9.53;8.53;;;9.60;99.90;;;;;;5015214;28;20834;-73
2021/04/11 04:18:17;;;;;;;12.30;10.97;;;9.70;99.90;;;;;;5031862;28;20435;-73
2021/04/11 04:21:01;;;;;;;14.47;10.87;;;9.70;99.90;;;;;;5031134;28;20406;-72
2021/04/11 04:23:45;;;;;;;12.90;10.70;;;9.70;99.90;;;;;;5031606;28;20442;-73
2021/04/11 04:26:51;;;;;;;13.10;11.00;;;9.70;99.90;;;;;;5030437;28;20553;-73
2021/04/11 04:29:35;;;;;;;14.10;11.50;;;9.60;99.90;;;;;;4973296;28;20436;-72
2021/04/11 04:32:03;;;;;;;13.40;11.07;;;9.50;99.90;;;;;;4972349;28;20410;-74
2021/04/11 04:34:35;;;;;;;14.47;12.83;;;9.50;99.90;;;;;;4957180;28;20431;-72
2021/04/11 04:37:32;;;;;;;16.70;11.70;;;9.50;99.90;;;;;;4934332;29;20453;-72
2021/04/11 04:40:09;;;;;;;13.67;11.10;;;9.50;99.90;;;;;;4934795;29;20605;-72
2021/04/11 04:42:52;;;;;;;13.30;10.00;;;9.50;99.90;;;;;;4934265;29;20533;-72
2021/04/11 04:45:36;;;;;;;12.30;10.40;;;9.50;99.90;;;;;;4934525;29;20403;-72
2021/04/11 04:48:25;;;;;;;11.90;9.83;;;9.50;99.90;;;;;;4933086;29;20445;-72
2021/04/11 04:51:00;;;;;;;11.83;9.13;;;9.40;99.90;;;;;;4933874;29;20481;-72
2021/04/11 04:53:34;;;;;;;10.20;9.10;;;9.30;99.90;;;;;;4934240;29;20415;-72
2021/04/11 04:56:02;;;;;;;11.30;9.40;;;9.30;99.90;;;;;;4953597;29;20446;-72
2021/04/11 04:58:34;;;;;;;10.00;9.00;;;9.30;99.90;;;;;;4953083;28;20445;-72
2021/04/11 05:01:16;;;;;;;12.00;9.60;;;9.20;99.90;;;;;;5006641;28;20800;-72
2021/04/11 05:03:46;;;;;;;12.50;9.23;;;9.20;99.90;;;;;;5012998;28;20473;-72
2021/04/11 05:06:21;;;;;;;14.30;10.23;;;8.90;99.90;;;;;;5012359;28;20520;-72
2021/04/11 05:09:38;;;;;;;14.77;10.40;;;8.70;99.90;;;;;;5012297;28;20418;-72
2021/04/11 05:12:31;;;;;;;16.27;11.60;;;8.50;99.90;;;;;;5010935;28;20426;-72
2021/04/11 05:15:02;;;;;;;19.47;13.13;;;8.50;99.90;;;;;;4995016;28;20446;-72
2021/04/11 05:17:35;;;;;;;18.23;12.80;;;8.50;99.90;;;;;;5011858;28;20530;-72
2021/04/11 05:20:08;;;;;;;16.80;12.53;;;8.30;99.90;;;;;;5011512;28;20415;-72
2021/04/11 05:22:51;;;;;;;18.00;14.17;;;8.10;99.90;;;;;;5010378;28;20856;-73
2021/04/11 05:25:26;;;;;;;18.43;13.80;;;7.90;99.90;;;;;;5011431;28;20456;-72
2021/04/11 05:28:19;;;;;;;22.87;15.33;;;7.70;99.90;;;;;;4994646;28;20795;-72
2021/04/11 05:30:50;;;;;;;25.10;15.87;;;7.70;99.90;;;;;;5010895;28;20430;-72
2021/04/11 05:33:21;;;;;;;21.33;15.23;;;7.90;99.90;;;;;;5010959;28;20496;-72
2021/04/11 05:35:50;;;;;;;19.87;14.10;;;8.00;99.90;;;;;;5011360;28;20414;-72
2021/04/11 05:38:46;;;;;;;16.57;12.30;;;8.00;99.90;;;;;;5010795;28;20454;-72
2021/04/11 05:41:18;;;;;;;12.80;10.53;;;8.00;99.90;;;;;;5011689;28;20434;-71
2021/04/11 05:43:58;;;;;;;11.77;9.33;;;7.90;99.90;;;;;;4994400;28;20430;-72
2021/04/11 05:46:32;;;;;;;15.67;10.93;;;7.90;99.90;;;;;;4992777;28;20477;-72
2021/04/11 05:49:01;;;;;;;16.37;11.53;;;7.80;99.90;;;;;;4993584;28;20403;-72
2021/04/11 05:51:42;;;;;;;17.50;12.17;;;7.90;99.90;;;;;;4994120;28;20404;-72
2021/04/11 05:54:17;;;;;;;17.37;11.53;;;7.90;99.90;;;;;;5010604;28;20438;-72
2021/04/11 05:56:51;;;;;;;13.63;10.67;;;7.90;99.90;;;;;;5011731;28;20440;-72
2021/04/11 05:59:34;;;;;;;15.53;11.63;;;7.90;99.90;;;;;;5013265;28;20520;-72
2021/04/11 06:02:02;;;;;;;18.50;12.87;;;7.70;99.90;;;;;;5015497;28;20476;-72
2021/04/11 06:04:44;;;;;;;19.30;14.17;;;7.50;99.90;;;;;;5016685;28;20465;-71
2021/04/11 06:07:29;;;;;;;22.60;13.80;;;7.50;99.90;;;;;;5015137;28;20485;-72
2021/04/11 06:10:19;;;;;;;18.50;12.23;;;7.40;99.90;;;;;;5016971;28;20802;-72
2021/04/11 06:13:26;;;;;;;20.80;13.03;;;7.50;99.90;;;;;;5016218;28;20501;-72
2021/04/11 06:16:00;;;;;;;21.42;14.70;;;7.50;99.90;;;;;;5013993;28;20714;-72
2021/04/11 06:18:26;;;;;;;23.20;14.20;;;7.60;99.90;;;;;;5016589;28;20641;-72
2021/04/11 06:20:53;;;;;;;17.60;12.97;;;7.60;99.90;;;;;;5016213;28;20422;-72
2021/04/11 06:23:25;;;;;;;25.03;15.17;;;7.30;99.90;;;;;;5015168;28;20225;-72
2021/04/11 06:26:06;;;;;;;22.53;14.57;;;7.20;99.90;;;;;;5015144;28;20470;-72
2021/04/11 06:28:48;;;;;;;22.90;15.87;;;7.00;99.90;;;;;;5016616;28;20402;-72
2021/04/11 06:31:24;;;;;;;18.93;13.03;;;6.90;99.90;;;;;;5015641;28;20440;-72
2021/04/11 06:33:56;;;;;;;19.77;13.90;;;7.00;99.90;;;;;;5015997;28;20413;-72
2021/04/11 06:36:28;;;;;;;21.33;14.37;;;6.90;99.90;;;;;;5016061;28;20418;-71
2021/04/11 06:38:59;;;;;;;20.97;13.93;;;7.10;99.90;;;;;;5015072;28;21115;-73
2021/04/11 06:41:57;;;;;;;26.00;16.97;;;7.20;99.90;;;;;;5016695;28;20430;-72
2021/04/11 06:44:45;;;;;;;38.90;25.20;;;7.30;99.90;;;;;;5014267;28;20422;-73
2021/04/11 06:47:34;;;;;;;40.07;25.93;;;6.90;99.90;;;;;;5013788;28;20469;-72
2021/04/11 06:50:12;;;;;;;46.37;28.13;;;6.30;99.90;;;;;;5013750;28;20429;-73
2021/04/11 06:53:28;;;;;;;43.00;26.83;;;6.10;99.90;;;;;;5013355;28;20418;-73
2021/04/11 06:56:15;;;;;;;45.43;25.73;;;6.00;99.90;;;;;;4974044;28;20420;-72
2021/04/11 06:58:48;;;;;;;38.17;23.50;;;6.00;99.90;;;;;;5014689;28;20414;-72
2021/04/11 07:01:41;;;;;;;42.40;25.87;;;6.20;99.90;;;;;;5013535;28;20923;-73
2021/04/11 07:04:25;;;;;;;40.67;25.87;;;6.40;99.90;;;;;;5013948;28;20407;-73
2021/04/11 07:07:18;;;;;;;49.90;28.70;;;6.60;99.90;;;;;;5012756;28;20844;-73
2021/04/11 07:10:21;;;;;;;51.53;28.27;;;6.80;99.90;;;;;;5012636;28;20438;-72
2021/04/11 07:13:07;;;;;;;51.80;31.43;;;6.80;99.90;;;;;;4954849;29;20509;-73
2021/04/11 07:16:01;;;;;;;54.20;32.97;;;6.80;99.90;;;;;;4955061;29;20422;-73
2021/04/11 07:18:35;;;;;;;59.47;34.70;;;6.70;99.90;;;;;;4955920;28;20776;-72
2021/04/11 07:21:37;;;;;;;63.33;36.93;;;6.80;99.90;;;;;;4939972;29;20432;-72
2021/04/11 07:24:28;;;;;;;59.50;34.87;;;6.90;99.90;;;;;;4954133;28;20447;-73
2021/04/11 07:27:21;;;;;;;50.40;29.10;;;6.70;99.90;;;;;;4954630;28;20471;-72
2021/04/11 07:30:11;;;;;;;47.03;27.10;;;6.40;99.90;;;;;;4938946;29;20480;-72
2021/04/11 07:33:13;;;;;;;51.77;29.80;;;6.10;99.90;;;;;;4938454;29;20530;-73
2021/04/11 07:35:41;;;;;;;47.30;27.47;;;6.10;99.90;;;;;;4955168;29;20464;-72
2021/04/11 07:38:30;;;;;;;38.83;24.00;;;6.00;99.90;;;;;;4938218;29;20564;-73
2021/04/11 07:41:04;;;;;;;29.80;17.57;;;5.80;99.90;;;;;;4954338;29;20553;-73
2021/04/11 07:44:07;;;;;;;38.77;22.33;;;5.70;99.90;;;;;;4954110;29;20401;-73
2021/04/11 07:47:09;;;;;;;26.20;15.53;;;5.60;99.90;;;;;;4954460;28;20538;-72
2021/04/11 07:49:45;;;;;;;25.63;14.97;;;5.40;99.90;;;;;;4983863;28;20433;-72
2021/04/11 07:52:40;;;;;;;23.60;14.83;;;5.30;99.90;;;;;;5014178;28;20473;-72
2021/04/11 07:55:05;;;;;;;22.40;14.10;;;5.40;99.90;;;;;;5010934;28;20455;-72
2021/04/11 07:58:09;;;;;;;21.27;13.33;;;5.60;99.90;;;;;;5012673;28;20427;-73
2021/04/11 08:00:54;;;;;;;18.70;11.93;;;5.70;99.90;;;;;;5010210;28;20193;-72
2021/04/11 08:03:19;;;;;;;18.73;12.50;;;5.90;99.90;;;;;;5014341;28;20425;-72
2021/04/11 08:06:15;;;;;;;15.23;10.40;;;5.90;99.90;;;;;;5014528;28;20404;-72
2021/04/11 08:09:06;;;;;;;17.47;11.70;;;5.80;99.90;;;;;;5014402;28;20168;-73
2021/04/11 08:12:08;;;;;;;23.10;14.80;;;5.90;99.90;;;;;;5013119;28;20495;-74
2021/04/11 08:14:55;;;;;;;22.77;14.63;;;5.80;99.90;;;;;;5014533;28;20487;-72
2021/04/11 08:17:38;;;;;;;23.63;14.33;;;5.50;99.90;;;;;;5013732;28;20569;-72
2021/04/11 08:20:33;;;;;;;23.73;15.57;;;5.60;99.90;;;;;;5014407;28;20414;-72
2021/04/11 08:23:25;;;;;;;20.30;13.67;;;5.80;99.90;;;;;;5012745;28;21029;-72
2021/04/11 08:26:12;;;;;;;22.43;14.67;;;6.00;99.90;;;;;;5013933;28;20425;-73
2021/04/11 08:28:44;;;;;;;21.67;13.10;;;6.20;99.90;;;;;;5013675;28;20446;-72
2021/04/11 08:31:40;;;;;;;26.10;15.20;;;6.10;99.90;;;;;;5013994;28;20412;-72
2021/04/11 08:34:28;;;;;;;18.87;12.37;;;6.20;99.90;;;;;;5013725;28;20402;-73
2021/04/11 08:37:48;;;;;;;19.00;12.37;;;6.00;99.90;;;;;;5014106;28;20457;-71
2021/04/11 08:40:32;;;;;;;16.27;11.53;;;5.70;99.90;;;;;;5012023;28;21040;-72
2021/04/11 08:43:27;;;;;;;20.53;13.40;;;5.60;99.90;;;;;;5014072;28;20851;-71
2021/04/11 08:46:01;;;;;;;20.90;13.63;;;5.60;99.90;;;;;;5013936;28;20512;-72
2021/04/11 08:48:52;;;;;;;22.73;12.70;;;5.70;99.90;;;;;;5015393;28;20448;-74
2021/04/11 08:51:41;;;;;;;26.43;15.17;;;5.60;99.90;;;;;;5014851;28;20411;-73
2021/04/11 08:54:43;;;;;;;18.17;12.00;;;5.60;99.90;;;;;;5014075;28;20775;-73
2021/04/11 08:57:19;;;;;;;22.47;12.53;;;5.50;99.90;;;;;;5013297;28;20438;-73
2021/04/11 09:00:03;;;;;;;19.23;12.47;;;5.40;99.90;;;;;;5014560;28;20802;-74
2021/04/11 09:02:57;;;;;;;20.73;12.17;;;5.50;99.90;;;;;;5013269;28;20448;-73
2021/04/11 09:05:36;;;;;;;19.40;12.53;;;5.50;99.90;;;;;;5013182;28;20426;-73
2021/04/11 09:08:10;;;;;;;19.07;11.40;;;5.40;99.90;;;;;;5020205;28;20470;-73
2021/04/11 09:11:04;;;;;;;16.77;11.17;;;5.50;99.90;;;;;;5016540;28;20444;-72
2021/04/11 09:13:51;;;;;;;18.50;11.20;;;5.70;99.90;;;;;;5031493;28;20475;-74
2021/04/11 09:16:45;;;;;;;17.43;11.40;;;5.50;99.90;;;;;;5020776;28;20822;-75
2021/04/11 09:19:40;;;;;;;16.60;11.47;;;5.40;99.90;;;;;;5012146;28;20430;-75
2021/04/11 09:22:12;;;;;;;14.73;10.03;;;5.50;99.90;;;;;;5011606;28;20523;-75
2021/04/11 09:25:10;;;;;;;12.97;8.30;;;5.40;99.90;;;;;;4981369;28;20463;-76
2021/04/11 09:27:38;;;;;;;11.10;8.03;;;5.30;99.90;;;;;;4972182;28;20468;-72
2021/04/11 09:30:43;;;;;;;9.60;7.37;;;5.30;99.90;;;;;;4972756;28;20464;-73
2021/04/11 09:33:26;;;;;;;7.30;6.30;;;5.40;99.90;;;;;;4980056;28;20420;-73
2021/04/11 09:36:16;;;;;;;6.80;5.87;;;5.60;99.90;;;;;;4976641;28;20413;-73
2021/04/11 09:39:18;;;;;;;6.90;5.53;;;5.60;99.90;;;;;;4976131;28;20464;-72
2021/04/11 09:42:01;;;;;;;5.20;4.70;;;5.60;99.90;;;;;;4999240;28;20460;-73
2021/04/11 09:44:49;;;;;;;6.17;5.30;;;5.50;99.90;;;;;;5015353;28;20415;-73
2021/04/11 09:47:25;;;;;;;5.40;4.90;;;5.50;99.90;;;;;;5014783;28;20580;-73
2021/04/11 09:50:17;;;;;;;6.13;4.70;;;5.40;99.90;;;;;;5015318;28;20419;-74
2021/04/11 09:52:48;;;;;;;6.07;5.23;;;5.30;99.90;;;;;;5015218;28;20402;-73
2021/04/11 09:55:36;;;;;;;6.73;5.30;;;5.40;99.90;;;;;;5014905;28;20439;-73
2021/04/11 09:58:35;;;;;;;6.13;5.13;;;5.50;99.90;;;;;;5024234;28;20498;-72
2021/04/11 10:01:15;;;;;;;5.50;5.00;;;5.60;99.90;;;;;;5011722;28;20418;-73
2021/04/11 10:03:55;;;;;;;6.17;5.07;;;5.50;99.90;;;;;;5027498;28;20452;-73
2021/04/11 10:06:27;;;;;;;5.53;4.90;;;5.50;99.90;;;;;;5027261;28;20485;-74
2021/04/11 10:09:31;;;;;;;5.37;4.87;;;5.40;99.90;;;;;;5020459;28;20438;-73
2021/04/11 10:12:21;;;;;;;7.20;5.37;;;5.40;99.90;;;;;;5035187;28;20412;-72
2021/04/11 10:15:01;;;;;;;7.20;5.57;;;5.30;99.90;;;;;;5017973;28;20864;-73
2021/04/11 10:18:05;;;;;;;6.20;4.90;;;5.30;99.90;;;;;;5033419;28;20444;-74
2021/04/11 10:20:50;;;;;;;5.10;4.23;;;5.50;99.90;;;;;;5030501;28;20455;-73
2021/04/11 10:23:20;;;;;;;5.03;4.40;;;5.50;99.90;;;;;;5043473;28;20403;-73
2021/04/11 10:25:56;;;;;;;4.40;4.00;;;5.70;99.90;;;;;;5033900;28;20455;-72
2021/04/11 10:28:46;;;;;;;3.27;2.90;;;5.60;99.90;;;;;;5046400;28;20459;-73
2021/04/11 10:31:24;;;;;;;3.43;3.13;;;5.50;99.90;;;;;;5029323;28;20422;-72
2021/04/11 10:34:14;;;;;;;3.90;3.60;;;5.50;99.90;;;;;;4999175;28;20408;-72
2021/04/11 10:36:53;;;;;;;3.80;3.50;;;5.50;99.90;;;;;;5012165;28;20470;-73
2021/04/11 10:39:43;;;;;;;4.03;3.73;;;5.50;99.90;;;;;;5022328;28;20430;-74
2021/04/11 10:42:35;;;;;;;3.70;3.40;;;5.60;99.90;;;;;;5011936;28;20443;-72
2021/04/11 10:45:25;;;;;;;3.73;3.43;;;5.70;99.90;;;;;;5030043;28;20843;-73
2021/04/11 10:48:15;;;;;;;5.10;3.87;;;5.90;99.90;;;;;;5006690;28;20454;-73
2021/04/11 10:50:55;;;;;;;4.97;4.50;;;5.80;99.90;;;;;;5024601;28;20531;-72
2021/04/11 10:53:58;;;;;;;5.07;4.60;;;5.60;99.90;;;;;;5032441;28;20854;-73
2021/04/11 10:56:45;;;;;;;5.53;4.93;;;5.70;99.90;;;;;;5011827;28;20860;-72
2021/04/11 10:59:11;;;;;;;5.70;5.20;;;5.60;99.90;;;;;;5020995;28;20464;-71
2021/04/11 11:01:42;;;;;;;7.03;5.40;;;5.70;99.90;;;;;;5032078;28;20414;-71
2021/04/11 11:04:35;;;;;;;6.30;5.70;;;5.90;99.90;;;;;;5015893;28;20207;-72
2021/04/11 11:07:19;;;;;;;6.43;5.80;;;5.80;99.90;;;;;;5007735;28;20463;-71
2021/04/11 11:10:23;;;;;;;7.50;6.80;;;5.50;99.90;;;;;;5020710;28;20414;-71
2021/04/11 11:12:55;;;;;;;7.67;6.73;;;5.50;99.90;;;;;;5022817;28;20444;-74
2021/04/11 11:15:39;;;;;;;7.77;6.57;;;5.60;99.90;;;;;;5032037;28;20424;-72
2021/04/11 11:18:34;;;;;;;8.40;7.50;;;5.70;99.90;;;;;;5019236;28;20452;-73
2021/04/11 11:21:03;;;;;;;8.57;6.40;;;5.70;99.90;;;;;;5024364;28;20414;-74
2021/04/11 11:23:33;;;;;;;7.40;6.70;;;5.80;99.90;;;;;;5018138;28;20910;-74
2021/04/11 11:26:31;;;;;;;6.97;6.27;;;5.80;99.90;;;;;;5028957;28;20447;-73
2021/04/11 11:29:11;;;;;;;7.50;6.63;;;5.50;99.90;;;;;;5028075;28;20485;-73
2021/04/11 11:32:00;;;;;;;7.90;7.10;;;5.40;99.90;;;;;;5018493;28;20510;-73
2021/04/11 11:34:52;;;;;;;7.30;6.60;;;5.50;99.90;;;;;;5025920;28;20407;-72
2021/04/11 11:37:57;;;;;;;7.43;6.73;;;5.60;99.90;;;;;;5012352;28;20491;-74
2021/04/11 11:40:22;;;;;;;8.23;7.40;;;5.70;99.90;;;;;;5001766;28;20438;-73
2021/04/11 11:43:00;;;;;;;8.20;7.40;;;5.90;99.90;;;;;;5010167;28;20852;-74
2021/04/11 11:45:38;;;;;;;7.53;6.83;;;5.90;99.90;;;;;;5014741;28;20249;-73
2021/04/11 11:48:38;;;;;;;8.40;7.60;;;5.70;99.90;;;;;;5015597;28;20462;-73
2021/04/11 11:51:28;;;;;;;7.90;7.20;;;5.80;99.90;;;;;;5024974;28;20420;-73
2021/04/11 11:54:23;;;;;;;8.57;7.77;;;5.60;99.90;;;;;;5010449;28;20950;-74
2021/04/11 11:57:04;;;;;;;8.93;8.10;;;5.70;99.90;;;;;;5001673;28;20798;-73
2021/04/11 11:59:37;;;;;;;9.20;8.30;;;5.80;99.90;;;;;;5003899;28;20424;-72
2021/04/11 12:02:06;;;;;;;9.40;8.50;;;5.90;99.90;;;;;;5013051;28;20413;-73
2021/04/11 12:04:46;;;;;;;9.40;8.60;;;6.10;99.90;;;;;;5006122;28;20458;-74
2021/04/11 12:07:29;;;;;;;8.30;7.60;;;6.30;99.90;;;;;;5005187;28;20489;-73
2021/04/11 12:10:20;;;;;;;8.60;7.90;;;6.30;99.90;;;;;;5004799;28;20496;-74
2021/04/11 12:13:13;;;;;;;7.83;7.17;;;6.20;99.90;;;;;;5006692;28;20425;-73
2021/04/11 12:15:45;;;;;;;8.40;7.60;;;5.80;99.90;;;;;;5001385;28;20444;-73
2021/04/11 12:18:17;;;;;;;8.17;7.40;;;5.80;99.90;;;;;;4999497;28;20458;-73
2021/04/11 12:21:01;;;;;;;7.67;6.97;;;5.80;99.90;;;;;;5009806;28;20518;-73
2021/04/11 12:23:34;;;;;;;7.00;6.40;;;5.70;99.90;;;;;;5025048;28;20781;-72
2021/04/11 12:26:19;;;;;;;6.00;5.50;;;5.90;99.90;;;;;;5016063;28;20490;-73
2021/04/11 12:28:47;;;;;;;6.90;6.37;;;5.90;99.90;;;;;;5034430;28;20394;-72
2021/04/11 12:31:34;;;;;;;6.83;6.20;;;5.90;99.90;;;;;;5033239;28;20424;-72
2021/04/11 12:34:23;;;;;;;7.00;6.20;;;6.10;99.90;;;;;;5022160;28;20419;-73
2021/04/11 12:37:26;;;;;;;6.17;5.60;;;6.20;99.90;;;;;;5005245;28;20508;-73
2021/04/11 12:40:10;;;;;;;6.20;5.57;;;6.30;99.90;;;;;;5008101;28;20415;-72
2021/04/11 12:42:44;;;;;;;6.23;5.63;;;6.40;99.90;;;;;;4994403;28;20502;-73
2021/04/11 12:45:30;;;;;;;6.00;5.50;;;6.60;99.90;;;;;;4996953;28;20429;-72
2021/04/11 12:48:16;;;;;;;6.80;6.20;;;6.70;99.90;;;;;;5002420;28;20553;-72
2021/04/11 12:51:00;;;;;;;6.47;5.97;;;6.70;99.90;;;;;;5003222;28;20518;-72
2021/04/11 12:53:44;;;;;;;6.47;5.87;;;6.50;99.90;;;;;;4999784;28;20784;-73
2021/04/11 12:56:14;;;;;;;7.50;6.80;;;6.60;99.90;;;;;;5002756;28;20591;-74
2021/04/11 12:58:54;;;;;;;7.90;7.30;;;6.70;99.90;;;;;;5012050;28;20429;-73
2021/04/11 13:01:24;;;;;;;8.30;7.50;;;6.70;99.90;;;;;;5019305;28;20433;-74
2021/04/11 13:03:53;;;;;;;8.23;7.43;;;6.80;99.90;;;;;;5022295;28;20453;-73
2021/04/11 13:06:44;;;;;;;7.80;7.20;;;6.70;99.90;;;;;;5019856;28;20558;-73
2021/04/11 13:09:43;;;;;;;7.20;6.60;;;6.70;99.90;;;;;;5013813;28;20456;-74
2021/04/11 13:12:32;;;;;;;7.40;6.70;;;6.70;99.90;;;;;;5015964;28;20428;-74
2021/04/11 13:15:04;;;;;;;6.70;6.00;;;7.00;99.90;;;;;;5026315;28;20467;-74
2021/04/11 13:18:13;;;;;;;5.83;5.40;;;7.00;99.90;;;;;;5022667;28;20460;-74
2021/04/11 13:21:04;;;;;;;6.40;5.90;;;7.00;99.90;;;;;;5007991;28;20437;-74
2021/04/11 13:23:41;;;;;;;5.80;5.20;;;7.20;99.90;;;;;;5009657;28;20981;-75
2021/04/11 13:26:39;;;;;;;6.90;6.30;;;7.40;99.90;;;;;;5030136;28;20719;-75
2021/04/11 13:29:33;;;;;;;5.57;5.17;;;7.50;99.90;;;;;;5021964;28;20402;-74
2021/04/11 13:32:23;;;;;;;6.77;6.23;;;7.40;99.90;;;;;;5010555;28;20450;-75
2021/04/11 13:35:18;;;;;;;6.97;6.27;;;7.30;99.90;;;;;;5011256;28;20413;-75
2021/04/11 13:37:50;;;;;;;7.33;6.63;;;7.40;99.90;;;;;;5019826;28;20457;-74
2021/04/11 13:40:22;;;;;;;6.63;6.07;;;7.30;99.90;;;;;;5029120;28;20449;-73
2021/04/11 13:43:09;;;;;;;6.77;6.17;;;7.40;99.90;;;;;;5019627;28;20425;-74
2021/04/11 13:45:41;;;;;;;7.43;6.90;;;7.50;99.90;;;;;;5021352;28;20422;-74
2021/04/11 13:48:25;;;;;;;6.90;6.40;;;7.60;99.90;;;;;;5033965;28;20461;-75
2021/04/11 13:51:11;;;;;;;8.47;7.77;;;7.50;99.90;;;;;;5042487;28;20405;-75